Time;durP1;ratioP1;P1;durP2;ratioP2;P2;SDS_P1;SDS_P2;PMS_P1;PMS_P2;Temp;Humidity;BMP_temperature;BMP_pressure;BME280_temperature;BME280_humidity;BME280_pressure;Samples;Min_cycle;Max_cycle;Signal;HPM_P1;HPM_P2
2021/03/19 00:02:45;;;;;;;21.08;19.08;;;;;;;5.66;69.09;100234.97;10275866;28;20066;-71
2021/03/19 00:07:49;;;;;;;20.20;18.10;;;;;;;5.69;69.02;100235.72;10274293;28;20059;-70
2021/03/19 00:12:51;;;;;;;21.63;19.20;;;;;;;5.69;69.62;100244.50;10271833;28;20049;-71
2021/03/19 00:17:54;;;;;;;21.10;19.00;;;;;;;5.74;69.75;100241.59;10274931;28;20113;-71
2021/03/19 00:23:04;;;;;;;19.08;17.17;;;;;;;5.74;69.78;100250.34;10272301;28;20105;-73
2021/03/19 00:28:06;;;;;;;20.48;18.48;;;;;;;5.79;69.89;100245.63;10274565;28;20476;-71
2021/03/19 00:33:08;;;;;;;19.35;17.55;;;;;;;5.73;69.66;100256.56;10271706;28;20051;-71
2021/03/19 00:38:10;;;;;;;19.08;17.08;;;;;;;5.71;69.60;100247.91;10268844;28;20046;-71
2021/03/19 00:43:14;;;;;;;20.50;18.33;;;;;;;5.72;69.33;100254.88;10273902;28;20096;-71
2021/03/19 00:48:15;;;;;;;20.33;18.35;;;;;;;5.71;69.21;100262.91;10267562;28;20690;-72
2021/03/19 00:53:25;;;;;;;20.52;18.27;;;;;;;5.68;69.61;100253.38;10261479;28;20045;-72
2021/03/19 00:58:26;;;;;;;21.73;19.42;;;;;;;5.65;69.72;100253.56;10284620;28;20050;-72
2021/03/19 01:03:26;;;;;;;21.20;18.95;;;;;;;5.66;69.16;100240.25;10272630;28;20114;-72
2021/03/19 01:08:28;;;;;;;20.38;18.27;;;;;;;5.73;68.83;100245.16;10275284;28;20051;-72
2021/03/19 01:13:29;;;;;;;20.17;18.13;;;;;;;5.62;69.25;100248.47;10302122;28;20055;-72
2021/03/19 01:18:30;;;;;;;20.23;18.10;;;;;;;5.64;69.58;100257.13;10293449;28;20055;-71
2021/03/19 01:23:47;;;;;;;20.65;18.25;;;;;;;5.60;69.25;100247.69;10307932;28;20055;-72
2021/03/19 01:28:48;;;;;;;21.23;19.10;;;;;;;5.61;69.96;100250.22;10271595;28;20047;-71
2021/03/19 01:33:57;;;;;;;21.27;19.08;;;;;;;5.58;69.95;100257.50;10277265;28;20051;-71
2021/03/19 01:38:58;;;;;;;23.05;20.75;;;;;;;5.54;69.19;100256.84;10266274;28;20062;-71
2021/03/19 01:44:02;;;;;;;24.58;22.10;;;;;;;5.49;69.02;100272.09;10264457;28;20051;-71
2021/03/19 01:49:41;;;;;;;23.50;20.93;;;;;;;5.52;68.90;100269.25;10285108;28;20524;-72
2021/03/19 01:55:20;;;;;;;25.13;22.52;;;;;;;5.30;69.89;100270.53;10283117;28;20055;-71
2021/03/19 02:00:59;;;;;;;28.58;25.25;;;;;;;5.33;69.85;100269.50;10292727;28;20053;-69
2021/03/19 02:06:38;;;;;;;27.25;24.35;;;;;;;5.35;70.32;100261.50;10286185;28;20046;-71
2021/03/19 02:12:16;;;;;;;28.67;24.27;;;;;;;5.25;70.71;100269.94;10284405;28;20055;-71
2021/03/19 02:17:55;;;;;;;31.35;25.98;;;;;;;5.18;70.93;100265.97;10289840;28;20043;-70
2021/03/19 02:23:33;;;;;;;31.42;26.95;;;;;;;5.24;70.08;100252.41;10292470;28;20050;-71
2021/03/19 02:29:16;;;;;;;32.60;28.65;;;;;;;5.23;70.54;100257.78;10263636;28;20058;-72
2021/03/19 02:34:17;;;;;;;30.73;26.73;;;;;;;5.26;70.61;100257.63;10260324;28;20050;-72
2021/03/19 02:39:18;;;;;;;33.35;28.00;;;;;;;5.19;70.68;100257.09;10265984;28;20054;-70
2021/03/19 02:44:19;;;;;;;28.83;25.75;;;;;;;5.19;70.44;100248.34;10258803;28;20067;-71
2021/03/19 02:49:21;;;;;;;27.55;24.42;;;;;;;5.17;70.43;100255.50;10241685;23;20062;-56
2021/03/19 02:54:23;;;;;;;28.90;24.70;;;;;;;5.10;70.11;100258.50;10273209;28;20158;-57
2021/03/19 02:59:24;;;;;;;24.77;22.27;;;;;;;5.04;70.03;100258.00;10272307;28;20055;-57
2021/03/19 03:04:26;;;;;;;26.02;23.23;;;;;;;4.93;70.47;100267.38;10260893;28;20137;-56
2021/03/19 03:09:31;;;;;;;28.42;25.42;;;;;;;4.93;70.44;100267.38;10266507;28;20051;-58
2021/03/19 03:14:32;;;;;;;25.67;22.80;;;;;;;4.94;70.42;100269.06;10260798;28;20050;-56
2021/03/19 03:19:34;;;;;;;25.77;22.85;;;;;;;4.96;69.97;100258.44;10266714;28;20050;-56
2021/03/19 03:24:36;;;;;;;25.45;22.60;;;;;;;4.82;70.19;100264.50;10269893;28;20181;-57
2021/03/19 03:29:37;;;;;;;28.45;23.15;;;;;;;4.69;70.49;100263.47;10272814;28;20094;-56
2021/03/19 03:34:38;;;;;;;25.85;22.35;;;;;;;4.74;70.46;100266.69;10266639;28;20051;-57
2021/03/19 03:39:38;;;;;;;24.00;20.75;;;;;;;4.78;70.30;100273.50;10264170;28;20047;-56
2021/03/19 03:44:39;;;;;;;24.70;20.52;;;;;;;4.77;70.16;100283.22;10275371;28;20547;-56
2021/03/19 03:49:40;;;;;;;23.33;19.52;;;;;;;4.76;69.77;100280.69;10272628;28;20051;-56
2021/03/19 03:54:41;;;;;;;23.92;19.63;;;;;;;4.73;69.98;100283.47;10270855;28;20542;-57
2021/03/19 03:59:42;;;;;;;21.52;18.45;;;;;;;4.72;69.67;100289.69;10265246;28;20053;-56
2021/03/19 04:04:46;;;;;;;23.15;19.70;;;;;;;4.71;69.49;100283.53;10271401;28;20042;-56
2021/03/19 04:09:50;;;;;;;24.53;18.33;;;;;;;4.66;69.41;100296.13;10280765;28;20101;-57
2021/03/19 04:14:51;;;;;;;24.25;18.45;;;;;;;4.53;69.46;100303.84;10272688;28;20046;-56
2021/03/19 04:19:52;;;;;;;21.00;17.25;;;;;;;4.35;70.10;100304.88;10270294;28;20050;-57
2021/03/19 04:24:54;;;;;;;23.88;18.10;;;;;;;4.40;70.05;100311.59;10277744;28;20055;-58
2021/03/19 04:29:56;;;;;;;23.17;18.58;;;;;;;4.45;69.50;100324.53;10276806;28;20135;-57
2021/03/19 04:34:57;;;;;;;22.33;18.05;;;;;;;4.35;69.66;100339.13;10267792;28;20131;-55
2021/03/19 04:39:58;;;;;;;20.88;17.90;;;;;;;4.05;70.44;100340.69;10263819;28;20054;-56
2021/03/19 04:45:00;;;;;;;20.33;16.67;;;;;;;4.11;70.92;100352.66;10275903;28;20058;-56
2021/03/19 04:50:03;;;;;;;22.63;17.38;;;;;;;4.20;70.08;100354.84;10276149;28;20105;-58
2021/03/19 04:55:06;;;;;;;24.85;18.35;;;;;;;3.48;71.81;100356.72;10261006;28;20058;-57
2021/03/19 05:00:09;;;;;;;22.25;16.83;;;;;;;3.67;71.71;100355.78;10269182;28;20058;-58
2021/03/19 05:05:16;;;;;;;20.92;17.67;;;;;;;3.47;71.77;100357.63;10251100;28;20042;-57
2021/03/19 05:10:20;;;;;;;26.45;20.42;;;;;;;3.65;70.85;100360.28;10267948;28;20050;-58
2021/03/19 05:15:23;;;;;;;23.23;18.55;;;;;;;3.55;70.97;100370.41;10269666;28;20061;-56
2021/03/19 05:20:26;;;;;;;25.77;18.42;;;;;;;3.72;70.42;100380.09;10278246;28;20047;-57
2021/03/19 05:25:30;;;;;;;25.80;18.73;;;;;;;3.74;69.85;100383.53;10276034;28;20054;-58
2021/03/19 05:30:31;;;;;;;22.25;17.85;;;;;;;3.64;70.05;100384.91;10269638;28;20213;-56
2021/03/19 05:35:33;;;;;;;24.10;19.60;;;;;;;3.57;69.81;100388.75;10269507;28;20058;-58
2021/03/19 05:40:39;;;;;;;24.92;18.83;;;;;;;3.54;69.56;100390.63;10274326;28;20464;-57
2021/03/19 05:45:41;;;;;;;23.60;17.50;;;;;;;3.34;70.44;100404.72;10269475;28;20117;-58
2021/03/19 05:50:41;;;;;;;26.17;19.67;;;;;;;3.35;70.22;100411.72;10271261;28;20051;-57
2021/03/19 05:55:43;;;;;;;21.15;17.50;;;;;;;3.24;70.32;100414.00;10268354;28;20066;-57
2021/03/19 06:00:44;;;;;;;19.88;16.58;;;;;;;3.39;69.77;100417.66;10266034;28;20066;-56
2021/03/19 06:06:15;;;;;;;23.27;18.15;;;;;;;3.48;69.56;100417.25;10252821;28;21768;-57
2021/03/19 06:11:21;;;;;;;22.70;17.67;;;;;;;3.46;69.50;100426.97;10257202;28;20200;-57
2021/03/19 06:16:42;;;;;;;22.85;18.63;;;;;;;3.51;69.19;100417.09;10263421;28;20500;-57
2021/03/19 06:21:44;;;;;;;23.02;18.55;;;;;;;3.72;69.02;100431.00;10262480;28;20043;-57
2021/03/19 06:26:45;;;;;;;24.17;18.42;;;;;;;3.84;67.80;100412.88;10259172;28;20436;-56
2021/03/19 06:32:13;;;;;;;24.17;17.92;;;;;;;3.92;67.63;100431.78;10261122;28;20058;-55
2021/03/19 06:37:26;;;;;;;22.42;18.13;;;;;;;4.04;67.70;100440.84;10260931;28;20465;-55
2021/03/19 06:42:29;;;;;;;22.67;16.92;;;;;;;3.80;68.11;100449.03;10255726;28;20117;-56
2021/03/19 06:47:38;;;;;;;21.88;17.35;;;;;;;3.80;68.19;100443.78;10259231;28;20049;-57
2021/03/19 06:52:40;;;;;;;21.20;17.83;;;;;;;3.92;68.25;100449.34;10261516;28;20051;-56
2021/03/19 06:57:53;;;;;;;22.35;17.13;;;;;;;4.07;67.38;100444.19;10261677;28;20051;-57
2021/03/19 07:03:05;;;;;;;23.80;17.63;;;;;;;4.17;66.50;100435.81;10262520;28;20046;-60
2021/03/19 07:08:15;;;;;;;26.10;19.08;;;;;;;4.22;66.35;100445.19;10265174;28;20105;-55
2021/03/19 07:13:28;;;;;;;21.88;17.40;;;;;;;5.02;68.19;100468.31;10265671;28;20058;-61
2021/03/19 07:18:57;;;;;;;21.45;16.70;;;;;;;5.25;63.14;100482.88;10259112;28;20144;-57
2021/03/19 07:24:18;;;;;;;21.67;16.33;;;;;;;5.15;62.51;100482.56;10257984;28;20047;-54
2021/03/19 07:29:25;;;;;;;18.25;14.82;;;;;;;5.43;61.19;100478.38;10256144;28;20515;-58
2021/03/19 07:34:49;;;;;;;18.27;14.55;;;;;;;5.55;59.58;100484.78;10257426;28;20058;-58
2021/03/19 07:40:16;;;;;;;20.48;15.98;;;;;;;5.74;59.55;100503.09;10259954;28;20086;-55
2021/03/19 07:45:48;;;;;;;20.88;15.38;;;;;;;6.15;58.44;100505.19;10263273;28;20047;-55
2021/03/19 07:51:07;;;;;;;17.77;15.50;;;;;;;6.17;58.28;100508.56;10268210;28;20051;-56
2021/03/19 07:56:41;;;;;;;18.65;15.30;;;;;;;6.26;57.75;100518.63;10264076;28;20053;-55
2021/03/19 08:01:56;;;;;;;20.58;16.13;;;;;;;6.65;57.18;100529.56;10251435;28;20069;-54
2021/03/19 08:07:14;;;;;;;20.92;17.25;;;;;;;6.57;56.89;100526.56;10269883;28;20053;-56
2021/03/19 08:12:40;;;;;;;23.30;17.05;;;;;;;6.37;57.33;100532.06;10273854;28;20043;-57
2021/03/19 08:18:02;;;;;;;20.48;15.93;;;;;;;6.80;56.48;100543.69;10274999;28;20058;-55
2021/03/19 08:23:48;;;;;;;17.45;14.73;;;;;;;7.12;55.17;100547.03;10278578;28;20047;-55
2021/03/19 08:29:01;;;;;;;17.67;14.65;;;;;;;7.30;55.15;100546.84;10250743;28;20054;-57
2021/03/19 08:34:23;;;;;;;20.23;15.55;;;;;;;7.96;53.10;100555.91;10278681;28;20050;-57
2021/03/19 08:39:40;;;;;;;18.92;15.27;;;;;;;8.31;52.37;100573.97;10278265;28;20388;-56
2021/03/19 08:44:42;;;;;;;18.23;15.55;;;;;;;8.45;52.13;100578.38;10277791;28;20077;-55
2021/03/19 08:49:53;;;;;;;16.73;14.00;;;;;;;8.79;50.81;100558.38;10271621;28;20050;-56
2021/03/19 08:55:12;;;;;;;16.77;13.48;;;;;;;9.01;49.25;100575.53;10274196;28;20062;-55
2021/03/19 09:00:25;;;;;;;15.23;13.60;;;;;;;9.46;48.07;100575.91;10277631;28;20043;-58
2021/03/19 09:05:31;;;;;;;14.60;12.55;;;;;;;9.49;47.81;100573.03;10279114;28;20058;-58
2021/03/19 09:10:34;;;;;;;16.00;13.57;;;;;;;9.85;46.74;100576.69;10276973;28;20058;-55
2021/03/19 09:15:41;;;;;;;17.17;13.25;;;;;;;9.12;46.72;100588.88;10271873;28;20138;-55
2021/03/19 09:21:03;;;;;;;16.55;14.05;;;;;;;8.49;47.69;100599.28;10273072;28;20121;-56
2021/03/19 09:26:04;;;;;;;14.50;11.73;;;;;;;8.07;48.54;100600.28;10265743;28;20105;-56
2021/03/19 09:31:23;;;;;;;13.50;10.70;;;;;;;7.57;49.05;100597.25;10265749;28;20548;-55
2021/03/19 09:37:01;;;;;;;12.77;11.18;;;;;;;7.18;49.65;100601.41;10268349;28;20060;-56
2021/03/19 09:42:02;;;;;;;11.73;9.73;;;;;;;6.93;51.01;100608.16;10279708;28;20506;-56
2021/03/19 09:47:04;;;;;;;10.65;9.23;;;;;;;6.83;50.90;100605.22;10260404;28;20054;-55
2021/03/19 09:52:17;;;;;;;11.05;8.75;;;;;;;6.98;49.80;100621.13;10262761;28;20500;-59
2021/03/19 09:57:21;;;;;;;11.93;9.45;;;;;;;7.07;49.77;100621.44;10251381;28;20047;-56
2021/03/19 10:02:27;;;;;;;12.23;9.57;;;;;;;7.14;48.64;100610.47;10253777;28;20082;-56
2021/03/19 10:07:31;;;;;;;15.40;9.82;;;;;;;7.15;48.64;100617.47;10250242;28;20423;-57
2021/03/19 10:12:34;;;;;;;10.02;8.82;;;;;;;7.01;48.69;100632.41;10246112;28;20610;-55
2021/03/19 10:17:37;;;;;;;9.10;8.20;;;;;;;6.62;48.88;100641.72;10254955;28;20112;-54
2021/03/19 10:23:08;;;;;;;10.88;8.25;;;;;;;6.73;49.03;100638.47;10250893;28;20073;-54
2021/03/19 10:28:12;;;;;;;8.93;7.70;;;;;;;6.90;48.60;100646.28;10253917;28;20113;-56
2021/03/19 10:33:19;;;;;;;9.45;7.90;;;;;;;6.93;48.12;100639.09;10251545;28;20050;-54
2021/03/19 10:38:31;;;;;;;9.00;7.50;;;;;;;7.02;47.99;100660.53;10252106;28;20054;-54
2021/03/19 10:43:43;;;;;;;8.95;7.38;;;;;;;7.04;47.43;100647.22;10258356;28;20500;-53
2021/03/19 10:48:52;;;;;;;8.15;7.30;;;;;;;6.76;48.70;100669.19;10262339;28;20510;-56
2021/03/19 10:54:03;;;;;;;8.27;7.10;;;;;;;6.60;48.43;100670.03;10260995;28;20090;-56
2021/03/19 10:59:12;;;;;;;8.93;7.15;;;;;;;6.63;48.50;100675.16;10255412;28;20038;-57
2021/03/19 11:04:36;;;;;;;9.57;7.10;;;;;;;9.22;43.31;100675.91;10254556;28;21073;-55
2021/03/19 11:09:58;;;;;;;7.00;6.30;;;;;;;10.46;39.84;100660.13;10247512;28;20050;-54
2021/03/19 11:15:02;;;;;;;10.00;7.68;;;;;;;9.89;41.35;100673.88;10249367;28;20142;-55
2021/03/19 11:20:10;;;;;;;9.25;7.38;;;;;;;11.47;37.01;100673.78;10248097;28;20049;-56
2021/03/19 11:25:27;;;;;;;7.57;6.80;;;;;;;10.75;38.23;100687.28;10253480;28;20054;-56
2021/03/19 11:30:37;;;;;;;6.85;6.20;;;;;;;17.76;27.32;100678.81;10250972;28;20047;-56
2021/03/19 11:35:38;;;;;;;8.10;7.18;;;;;;;13.08;32.52;100693.81;10276778;23;20113;-74
2021/03/19 11:40:43;;;;;;;8.75;7.13;;;;;;;11.21;36.87;100699.78;10269543;28;20712;-71
2021/03/19 11:45:46;;;;;;;6.90;5.85;;;;;;;10.11;37.67;100688.31;10277118;28;20055;-70
2021/03/19 11:51:07;;;;;;;6.70;6.07;;;;;;;14.38;31.29;100679.97;10277499;28;20082;-72
2021/03/19 11:56:08;;;;;;;7.15;6.45;;;;;;;12.51;33.74;100684.31;10266901;28;20100;-72
2021/03/19 12:01:10;;;;;;;8.93;6.63;;;;;;;12.11;35.64;100695.53;10270196;28;20122;-72
2021/03/19 12:06:14;;;;;;;6.35;5.60;;;;;;;19.26;24.41;100688.00;10265620;28;20101;-72
2021/03/19 12:11:33;;;;;;;6.53;5.30;;;;;;;23.86;19.00;100692.59;10271234;28;20082;-72
2021/03/19 12:16:35;;;;;;;6.03;5.43;;;;;;;28.39;14.68;100684.97;10264853;28;20047;-73
2021/03/19 12:21:37;;;;;;;4.47;4.07;;;;;;;26.21;14.96;100688.25;10280064;28;20098;-73
2021/03/19 12:26:37;;;;;;;4.55;4.15;;;;;;;24.11;16.21;100690.22;10273819;28;20062;-72
2021/03/19 12:31:39;;;;;;;4.47;3.92;;;;;;;17.19;24.97;100693.59;10277818;28;20070;-70
2021/03/19 12:36:40;;;;;;;5.65;5.13;;;;;;;14.01;29.71;100699.28;10278696;28;20434;-72
2021/03/19 12:41:42;;;;;;;6.03;5.35;;;;;;;12.64;32.27;100693.03;10277028;28;20054;-72
2021/03/19 12:46:43;;;;;;;4.97;4.47;;;;;;;11.55;33.64;100697.19;10280045;28;20421;-70
2021/03/19 12:51:45;;;;;;;7.32;4.90;;;;;;;11.04;33.95;100705.53;10283542;28;20413;-72
2021/03/19 12:56:46;;;;;;;5.05;4.53;;;;;;;16.25;27.16;100679.53;10296031;28;20050;-74
2021/03/19 13:01:47;;;;;;;4.18;3.78;;;;;;;24.16;16.86;100684.19;10272143;28;20501;-72
2021/03/19 13:06:48;;;;;;;3.85;3.40;;;;;;;25.87;14.72;100676.59;10285451;28;20055;-73
2021/03/19 13:11:49;;;;;;;4.80;3.90;;;;;;;19.89;20.00;100677.41;10275752;28;20498;-75
2021/03/19 13:16:50;;;;;;;4.05;3.65;;;;;;;20.03;20.54;100676.69;10276212;28;20125;-74
2021/03/19 13:21:52;;;;;;;5.80;4.35;;;;;;;21.27;19.27;100670.47;10278199;28;20053;-73
2021/03/19 13:26:53;;;;;;;3.45;3.15;;;;;;;18.09;23.07;100682.53;10328376;28;20579;-74
2021/03/19 13:31:54;;;;;;;3.85;3.13;;;;;;;14.71;26.38;100693.97;10319163;28;20050;-73
2021/03/19 13:36:55;;;;;;;4.43;3.90;;;;;;;12.46;32.59;100705.19;10288586;28;20074;-73
2021/03/19 13:41:56;;;;;;;4.90;4.30;;;;;;;11.40;36.19;100715.22;10309915;28;20043;-71
2021/03/19 13:46:59;;;;;;;4.28;3.75;;;;;;;11.72;36.55;100716.38;10300537;28;20051;-72
2021/03/19 13:52:03;;;;;;;3.60;3.30;;;;;;;15.19;30.45;100713.72;10299218;28;20042;-73
2021/03/19 13:57:08;;;;;;;3.38;3.08;;;;;;;17.01;27.49;100708.88;10286903;28;20105;-71
2021/03/19 14:02:11;;;;;;;3.80;3.22;;;;;;;15.19;28.51;100703.00;10278739;28;20053;-71
2021/03/19 14:07:13;;;;;;;4.93;2.70;;;;;;;13.84;29.31;100695.44;10284280;28;20735;-72
2021/03/19 14:12:13;;;;;;;3.40;3.00;;;;;;;12.27;32.74;100712.03;10277116;28;20245;-75
2021/03/19 14:17:14;;;;;;;2.60;2.28;;;;;;;10.72;37.50;100719.44;10278391;28;20056;-73
2021/03/19 14:22:18;;;;;;;3.83;2.53;;;;;;;10.75;37.29;100717.41;10283464;28;20047;-73
2021/03/19 14:27:19;;;;;;;3.55;2.35;;;;;;;11.73;35.51;100731.41;10283938;28;20670;-72
2021/03/19 14:32:21;;;;;;;2.70;2.50;;;;;;;12.73;34.33;100731.50;10284921;28;20043;-70
2021/03/19 14:37:22;;;;;;;2.75;2.45;;;;;;;12.54;33.84;100732.97;10278511;28;20051;-72
2021/03/19 14:42:23;;;;;;;3.17;2.30;;;;;;;11.66;34.38;100737.22;10278673;28;20051;-73
2021/03/19 14:47:23;;;;;;;3.95;3.05;;;;;;;10.58;36.21;100723.09;10279886;28;20054;-74
2021/03/19 14:52:25;;;;;;;3.10;2.65;;;;;;;9.68;39.74;100739.19;10277498;28;20098;-72
2021/03/19 14:57:26;;;;;;;3.05;2.40;;;;;;;9.61;39.82;100754.72;10275181;28;20077;-75
2021/03/19 15:02:27;;;;;;;2.40;2.05;;;;;;;9.46;41.06;100745.97;10278366;28;20082;-72
2021/03/19 15:07:29;;;;;;;5.38;3.15;;;;;;;9.46;41.35;100756.59;10290386;28;20082;-71
2021/03/19 15:12:30;;;;;;;3.72;2.00;;;;;;;9.31;42.07;100757.66;10283304;28;20064;-72
2021/03/19 15:17:31;;;;;;;2.55;2.35;;;;;;;9.39;41.73;100771.25;10308100;28;20042;-74
2021/03/19 15:22:32;;;;;;;3.08;2.25;;;;;;;9.14;43.88;100788.84;10278159;28;20605;-72
2021/03/19 15:27:35;;;;;;;2.55;1.85;;;;;;;8.75;46.37;100793.16;10273150;28;20060;-69
2021/03/19 15:32:37;;;;;;;2.22;1.77;;;;;;;8.37;47.35;100803.50;10270216;28;20057;-70
2021/03/19 15:37:40;;;;;;;3.55;2.10;;;;;;;8.11;47.24;100806.81;10267566;28;20496;-72
2021/03/19 15:42:40;;;;;;;2.53;1.80;;;;;;;8.17;46.20;100802.94;10274686;28;20305;-70
2021/03/19 15:47:43;;;;;;;2.42;2.05;;;;;;;8.46;44.61;100789.69;10271838;28;20050;-71
2021/03/19 15:52:45;;;;;;;2.78;2.00;;;;;;;8.77;44.10;100782.44;10274361;28;20070;-70
2021/03/19 15:57:47;;;;;;;4.50;1.80;;;;;;;8.69;45.20;100792.66;10271872;28;20677;-71
2021/03/19 16:02:48;;;;;;;2.17;1.65;;;;;;;8.19;45.66;100790.41;10280378;28;20126;-70
2021/03/19 16:07:52;;;;;;;2.40;2.20;;;;;;;8.05;46.55;100809.84;10312296;28;20081;-72
2021/03/19 16:12:53;;;;;;;3.15;2.10;;;;;;;7.74;47.95;100810.84;10283199;28;20097;-70
2021/03/19 16:17:55;;;;;;;3.15;2.30;;;;;;;7.92;46.79;100819.47;10281013;28;20489;-70
2021/03/19 16:22:56;;;;;;;2.28;2.00;;;;;;;7.78;47.11;100810.56;10309179;28;20057;-72
2021/03/19 16:27:57;;;;;;;2.40;1.88;;;;;;;7.62;46.23;100807.13;10315917;28;20064;-75
2021/03/19 16:32:59;;;;;;;3.45;1.48;;;;;;;7.54;46.41;100814.69;10298843;28;20063;-71
2021/03/19 16:38:00;;;;;;;2.15;1.52;;;;;;;7.58;45.49;100817.06;10296211;28;20058;-72
2021/03/19 16:43:04;;;;;;;2.75;2.13;;;;;;;7.53;44.89;100823.56;10286188;28;20053;-71
2021/03/19 16:48:06;;;;;;;2.63;1.70;;;;;;;7.42;44.61;100822.38;10293501;28;20038;-71
2021/03/19 16:53:11;;;;;;;1.65;1.17;;;;;;;7.42;43.67;100830.34;10304485;28;20133;-72
2021/03/19 16:58:17;;;;;;;2.22;1.42;;;;;;;7.31;44.48;100832.78;10298628;28;20054;-73
2021/03/19 17:03:24;;;;;;;3.92;2.25;;;;;;;7.20;44.26;100841.31;10315637;28;20058;-72
2021/03/19 17:08:26;;;;;;;3.60;2.30;;;;;;;7.17;44.19;100851.22;10315798;28;20057;-72
2021/03/19 17:13:28;;;;;;;2.65;2.20;;;;;;;7.05;43.90;100856.25;10313967;28;20050;-72
2021/03/19 17:18:30;;;;;;;2.50;1.80;;;;;;;6.92;44.45;100865.84;10304223;28;20109;-69
2021/03/19 17:23:33;;;;;;;3.05;1.40;;;;;;;6.78;44.91;100879.81;10291449;28;20437;-72
2021/03/19 17:28:35;;;;;;;1.98;1.35;;;;;;;6.84;44.51;100883.94;10279308;28;20169;-73
2021/03/19 17:33:37;;;;;;;1.95;1.20;;;;;;;6.66;44.72;100886.63;10285766;28;20066;-73
2021/03/19 17:38:39;;;;;;;4.22;1.40;;;;;;;6.58;47.38;100901.22;10286810;28;20482;-71
2021/03/19 17:43:40;;;;;;;3.90;2.30;;;;;;;6.20;49.56;100899.66;10322739;23;20157;-69
2021/03/19 17:48:41;;;;;;;2.75;1.58;;;;;;;6.24;49.70;100890.63;10336539;28;20049;-71
2021/03/19 17:53:43;;;;;;;3.85;2.15;;;;;;;6.31;49.66;100901.75;10323518;28;20594;-69
2021/03/19 17:58:44;;;;;;;2.40;2.13;;;;;;;6.22;49.97;100902.22;10296353;28;20077;-71
2021/03/19 18:03:45;;;;;;;2.72;2.08;;;;;;;6.15;50.57;100907.81;10298304;28;20113;-67
2021/03/19 18:08:46;;;;;;;2.83;2.00;;;;;;;6.13;51.05;100914.97;10298766;28;20066;-74
2021/03/19 18:13:48;;;;;;;2.78;2.10;;;;;;;6.20;50.78;100918.19;10298811;28;20098;-68
2021/03/19 18:18:49;;;;;;;3.10;1.92;;;;;;;6.27;50.89;100916.91;10299395;28;20165;-71
2021/03/19 18:23:54;;;;;;;2.53;2.10;;;;;;;6.23;51.01;100918.00;10297944;28;20169;-69
2021/03/19 18:28:56;;;;;;;2.45;2.25;;;;;;;6.19;51.26;100924.38;10301803;28;20116;-71
2021/03/19 18:33:57;;;;;;;3.47;2.67;;;;;;;6.19;52.33;100937.59;10298836;28;20397;-70
2021/03/19 18:38:59;;;;;;;3.95;3.05;;;;;;;6.07;53.27;100935.59;10301468;28;20100;-73
2021/03/19 18:43:59;;;;;;;3.38;2.40;;;;;;;5.84;53.68;100925.22;10303166;28;20100;-70
2021/03/19 18:49:00;;;;;;;3.40;2.95;;;;;;;5.63;55.12;100939.47;10299527;28;20058;-75
2021/03/19 18:54:02;;;;;;;8.30;3.20;;;;;;;5.71;54.52;100949.69;10300106;28;20169;-70
2021/03/19 18:59:04;;;;;;;3.33;2.70;;;;;;;5.66;54.24;100944.63;10314375;28;20077;-73
2021/03/19 19:04:05;;;;;;;4.22;2.80;;;;;;;5.59;54.58;100948.50;10298088;28;20074;-71
2021/03/19 19:09:06;;;;;;;3.60;2.40;;;;;;;5.55;54.84;100960.97;10300822;28;20061;-69
2021/03/19 19:14:07;;;;;;;3.60;3.13;;;;;;;5.26;55.88;100962.38;10298567;28;20137;-73
2021/03/19 19:19:08;;;;;;;5.00;3.50;;;;;;;5.19;56.11;100964.44;10296227;28;20759;-70
2021/03/19 19:24:10;;;;;;;4.53;3.97;;;;;;;5.24;56.05;100962.44;10299609;28;20133;-69
2021/03/19 19:29:10;;;;;;;3.28;2.80;;;;;;;5.03;56.67;100966.06;10298992;28;20054;-71
2021/03/19 19:34:11;;;;;;;4.03;2.78;;;;;;;4.96;57.05;100962.84;10298287;28;20050;-71
2021/03/19 19:39:13;;;;;;;3.53;3.22;;;;;;;4.69;58.10;100975.53;10305085;28;20054;-70
2021/03/19 19:44:14;;;;;;;4.05;3.25;;;;;;;4.85;57.50;100970.38;10306119;28;20058;-68
2021/03/19 19:49:16;;;;;;;4.28;3.55;;;;;;;5.22;56.98;100974.84;10307637;28;21230;-70
2021/03/19 19:54:17;;;;;;;5.32;3.55;;;;;;;5.30;56.25;100971.88;10306553;28;20511;-69
2021/03/19 19:59:18;;;;;;;4.72;3.28;;;;;;;5.25;56.22;100977.34;10302163;28;20050;-71
2021/03/19 20:04:20;;;;;;;3.75;3.30;;;;;;;5.19;56.67;100985.53;10299713;28;20205;-73
2021/03/19 20:09:21;;;;;;;3.58;2.97;;;;;;;5.06;56.96;100985.25;10305961;28;20058;-68
2021/03/19 20:14:22;;;;;;;4.13;3.72;;;;;;;5.01;57.21;100997.78;10306231;28;20054;-71
2021/03/19 20:19:24;;;;;;;6.40;5.45;;;;;;;4.99;57.39;100993.53;10306645;28;20531;-71
2021/03/19 20:24:25;;;;;;;12.38;11.18;;;;;;;5.01;57.75;101007.50;10307943;28;20572;-70
2021/03/19 20:29:26;;;;;;;9.15;8.25;;;;;;;4.78;58.18;101004.13;10304942;28;20137;-71
2021/03/19 20:34:27;;;;;;;8.70;7.85;;;;;;;4.80;58.50;101014.59;10302786;28;20069;-72
2021/03/19 20:39:34;;;;;;;8.65;7.75;;;;;;;4.79;58.49;101024.31;10305651;28;20418;-69
2021/03/19 20:44:35;;;;;;;6.13;5.20;;;;;;;4.88;58.40;101023.91;10305403;28;20065;-71
2021/03/19 20:49:38;;;;;;;6.50;5.90;;;;;;;4.88;58.57;101039.72;10303663;28;20058;-73
2021/03/19 20:54:39;;;;;;;5.53;4.93;;;;;;;4.80;58.16;101041.81;10303475;28;20108;-72
2021/03/19 20:59:40;;;;;;;4.90;4.28;;;;;;;4.78;57.88;101044.53;10304358;28;20058;-70
2021/03/19 21:04:41;;;;;;;4.47;4.07;;;;;;;4.71;57.41;101047.50;10302487;28;20086;-70
2021/03/19 21:09:45;;;;;;;5.35;4.85;;;;;;;4.71;57.69;101051.00;10305263;28;20075;-69
2021/03/19 21:14:47;;;;;;;6.05;5.45;;;;;;;4.64;57.33;101049.56;10316645;28;20038;-71
2021/03/19 21:19:50;;;;;;;6.80;5.47;;;;;;;4.58;57.00;101055.94;10304714;28;20185;-71
2021/03/19 21:24:51;;;;;;;6.00;5.50;;;;;;;4.57;56.54;101059.50;10302115;28;20070;-70
2021/03/19 21:29:52;;;;;;;5.15;4.65;;;;;;;4.33;56.96;101057.91;10317142;28;20050;-69
2021/03/19 21:34:53;;;;;;;7.00;5.25;;;;;;;4.37;56.93;101062.16;10305170;28;20054;-67
2021/03/19 21:39:53;;;;;;;11.35;7.72;;;;;;;4.36;56.79;101063.06;10295297;28;20053;-72
2021/03/19 21:44:54;;;;;;;13.07;8.32;;;;;;;4.34;56.77;101051.69;10301018;28;20185;-68
2021/03/19 21:49:55;;;;;;;5.32;4.40;;;;;;;4.30;56.71;101063.31;10292837;28;20364;-70
2021/03/19 21:54:56;;;;;;;4.07;3.75;;;;;;;4.23;56.88;101074.13;10295565;28;20129;-69
2021/03/19 21:59:57;;;;;;;3.83;3.53;;;;;;;4.19;56.70;101069.88;10295699;28;20409;-70
2021/03/19 22:04:58;;;;;;;4.43;4.03;;;;;;;4.09;57.21;101081.72;10304144;28;20483;-69
2021/03/19 22:09:59;;;;;;;8.90;5.22;;;;;;;3.96;57.97;101093.66;10304598;28;20042;-70
2021/03/19 22:15:00;;;;;;;4.38;3.97;;;;;;;3.81;57.98;101088.06;10302684;28;20424;-71
2021/03/19 22:20:04;;;;;;;4.40;3.97;;;;;;;3.87;57.99;101101.00;10301853;28;20094;-71
2021/03/19 22:25:06;;;;;;;4.30;3.67;;;;;;;4.01;57.72;101107.53;10299538;28;20058;-69
2021/03/19 22:30:14;;;;;;;5.55;4.72;;;;;;;4.02;57.23;101111.84;10296560;28;20098;-68
2021/03/19 22:35:16;;;;;;;5.68;4.15;;;;;;;4.06;57.10;101113.44;10291542;28;20124;-70
2021/03/19 22:40:39;;;;;;;4.88;3.53;;;;;;;4.00;56.74;101118.97;10305708;28;20572;-68
2021/03/19 22:45:41;;;;;;;4.75;3.90;;;;;;;3.98;55.94;101121.66;10306435;28;20058;-70
2021/03/19 22:50:44;;;;;;;4.68;3.83;;;;;;;3.98;56.06;101128.69;10296917;28;20100;-70
2021/03/19 22:55:45;;;;;;;5.25;3.70;;;;;;;3.95;55.68;101118.25;10289183;28;20129;-69
2021/03/19 23:00:50;;;;;;;3.92;3.53;;;;;;;4.09;55.49;101129.13;10298463;28;20523;-68
2021/03/19 23:05:52;;;;;;;3.72;3.42;;;;;;;4.09;55.21;101137.03;10296446;28;20476;-69
2021/03/19 23:10:56;;;;;;;3.92;3.53;;;;;;;4.15;55.57;101139.44;10295591;28;20048;-69
2021/03/19 23:15:57;;;;;;;4.72;4.22;;;;;;;4.21;55.38;101133.91;10301232;28;20552;-70
2021/03/19 23:21:00;;;;;;;6.00;3.70;;;;;;;4.23;55.24;101129.47;10301305;28;20050;-69
2021/03/19 23:26:03;;;;;;;5.03;4.28;;;;;;;4.32;55.02;101135.25;10300328;28;20073;-69